Time;durP1;ratioP1;P1;durP2;ratioP2;P2;SDS_P1;SDS_P2;PMS_P1;PMS_P2;Temp;Humidity;BMP_temperature;BMP_pressure;BME280_temperature;BME280_humidity;BME280_pressure;Samples;Min_cycle;Max_cycle;Signal;HPM_P1;HPM_P2
2023/10/13 00:01:34;;;;;;;2.33;0.90;;;15.00;89.90;;;;;;4977173;28;20431;-78
2023/10/13 00:04:02;;;;;;;3.13;0.70;;;15.10;90.00;;;;;;4960380;28;20149;-78
2023/10/13 00:06:28;;;;;;;1.50;0.60;;;15.00;89.80;;;;;;4960260;28;20035;-78
2023/10/13 00:08:55;;;;;;;2.20;0.65;;;15.10;89.80;;;;;;4963805;28;20031;-79
2023/10/13 00:11:21;;;;;;;1.17;0.60;;;15.10;89.90;;;;;;4944482;28;20090;-79
2023/10/13 00:13:50;;;;;;;1.92;0.60;;;15.10;89.80;;;;;;4980491;28;20035;-79
2023/10/13 00:16:27;;;;;;;1.92;0.57;;;15.10;89.80;;;;;;4982939;28;20488;-78
2023/10/13 00:18:59;;;;;;;1.58;0.65;;;15.10;89.80;;;;;;4963057;28;20035;-78
2023/10/13 00:21:42;;;;;;;1.58;0.60;;;15.00;89.60;;;;;;4964858;28;20039;-76
2023/10/13 00:24:12;;;;;;;0.93;0.50;;;15.10;89.60;;;;;;4962848;28;20050;-77
2023/10/13 00:26:39;;;;;;;1.58;0.77;;;15.00;89.40;;;;;;4981600;28;20033;-77
2023/10/13 00:31:42;;;;;;;0.57;0.50;;;15.00;89.40;;;;;;4951393;28;20039;-78
2023/10/13 00:39:28;;;;;;;2.88;0.65;;;15.00;89.30;;;;;;4979730;28;20031;-78
2023/10/13 00:41:59;;;;;;;1.20;0.70;;;15.10;89.40;;;;;;4963917;28;20068;-79
2023/10/13 00:45:04;;;;;;;1.05;0.52;;;15.00;89.30;;;;;;4980461;28;20049;-80
2023/10/13 00:50:19;;;;;;;2.47;0.70;;;15.00;89.20;;;;;;4957077;28;20039;-78
2023/10/13 00:52:50;;;;;;;6.40;0.90;;;15.00;89.00;;;;;;4978319;28;20075;-80
2023/10/13 00:55:18;;;;;;;2.22;0.75;;;15.00;89.20;;;;;;4963855;28;20856;-79
2023/10/13 00:57:46;;;;;;;2.08;0.52;;;15.00;89.10;;;;;;4964168;28;20039;-79
2023/10/13 01:00:19;;;;;;;3.25;0.98;;;15.00;89.30;;;;;;4963365;28;20378;-79
2023/10/13 01:02:55;;;;;;;2.63;0.70;;;15.00;89.10;;;;;;4963748;28;20121;-78
2023/10/13 01:05:25;;;;;;;1.55;0.52;;;15.00;89.10;;;;;;4964454;28;20033;-79
2023/10/13 01:07:54;;;;;;;2.97;0.93;;;15.00;89.40;;;;;;4978850;28;20039;-79
2023/10/13 01:10:25;;;;;;;1.15;0.57;;;15.00;89.30;;;;;;4961993;28;20047;-80
2023/10/13 01:12:52;;;;;;;2.42;0.70;;;15.00;89.30;;;;;;4963827;28;20038;-79
2023/10/13 01:15:21;;;;;;;3.15;0.75;;;15.00;89.10;;;;;;4945352;28;20042;-78
2023/10/13 01:17:48;;;;;;;2.40;0.60;;;15.00;89.00;;;;;;4980099;28;20063;-77
2023/10/13 01:20:42;;;;;;;2.80;0.65;;;15.00;89.10;;;;;;4979839;28;20509;-80
2023/10/13 01:23:24;;;;;;;0.77;0.47;;;15.00;89.20;;;;;;4963970;28;20049;-78
2023/10/13 01:25:50;;;;;;;2.17;0.68;;;15.00;88.90;;;;;;4964142;28;20043;-80
2023/10/13 01:28:17;;;;;;;1.60;0.60;;;15.00;88.80;;;;;;4979652;28;20030;-78
2023/10/13 01:30:49;;;;;;;1.35;0.50;;;15.00;88.80;;;;;;4978326;28;20035;-79
2023/10/13 01:33:17;;;;;;;3.10;0.65;;;15.00;88.70;;;;;;4982959;28;20042;-79
2023/10/13 01:35:47;;;;;;;0.88;0.50;;;15.00;88.80;;;;;;4966262;28;20041;-77
2023/10/13 01:38:14;;;;;;;2.05;0.60;;;15.00;89.00;;;;;;4963182;28;20661;-79
2023/10/13 01:40:42;;;;;;;2.05;0.90;;;15.00;88.90;;;;;;4962000;28;20035;-79
2023/10/13 01:43:10;;;;;;;2.25;0.45;;;15.00;88.80;;;;;;4965030;28;20183;-80
2023/10/13 01:45:49;;;;;;;2.30;0.77;;;15.00;88.80;;;;;;4962772;28;20085;-78
2023/10/13 01:48:18;;;;;;;1.75;0.68;;;15.00;88.60;;;;;;4962757;28;20030;-78
2023/10/13 01:50:59;;;;;;;0.90;0.60;;;15.00;89.20;;;;;;4979169;28;20026;-78
2023/10/13 01:53:28;;;;;;;1.65;0.45;;;15.00;88.60;;;;;;4978757;28;20437;-78
2023/10/13 01:55:58;;;;;;;3.25;0.75;;;15.00;88.70;;;;;;4977076;28;20030;-80
2023/10/13 01:58:26;;;;;;;2.35;0.63;;;15.00;88.70;;;;;;4946798;28;20062;-79
2023/10/13 02:00:52;;;;;;;1.77;0.75;;;15.00;88.60;;;;;;4977834;28;20129;-80
2023/10/13 02:03:18;;;;;;;1.58;0.70;;;15.00;88.50;;;;;;4963802;28;20070;-80
2023/10/13 02:05:49;;;;;;;0.85;0.40;;;15.00;88.60;;;;;;4961618;28;20035;-80
2023/10/13 02:08:23;;;;;;;3.05;0.70;;;15.00;88.70;;;;;;4962933;28;20033;-80
2023/10/13 02:10:56;;;;;;;2.05;0.60;;;15.00;88.70;;;;;;4946712;28;20043;-79
2023/10/13 02:13:24;;;;;;;0.82;0.50;;;15.00;88.60;;;;;;4961104;28;20133;-79
2023/10/13 02:15:56;;;;;;;1.40;0.60;;;15.00;88.50;;;;;;4976975;28;20069;-81
2023/10/13 02:18:27;;;;;;;1.25;0.73;;;15.00;88.60;;;;;;4962454;28;20035;-79
2023/10/13 02:20:55;;;;;;;1.65;0.60;;;15.00;88.70;;;;;;4946744;28;20065;-82
2023/10/13 02:23:25;;;;;;;3.08;0.75;;;15.00;88.80;;;;;;4962957;28;20055;-82
2023/10/13 02:26:00;;;;;;;3.20;0.63;;;15.00;88.80;;;;;;4961737;28;20127;-82
2023/10/13 02:28:30;;;;;;;1.90;0.70;;;15.00;88.80;;;;;;4963496;28;20081;-78
2023/10/13 02:30:57;;;;;;;0.55;0.40;;;15.00;88.80;;;;;;4977677;28;20034;-79
2023/10/13 02:33:29;;;;;;;1.45;0.60;;;15.00;88.50;;;;;;4960378;28;20053;-78
2023/10/13 02:35:57;;;;;;;1.02;0.57;;;15.00;88.70;;;;;;4966199;28;20491;-78
2023/10/13 02:38:46;;;;;;;1.17;0.55;;;15.00;88.60;;;;;;4963618;28;20038;-79
2023/10/13 02:41:25;;;;;;;3.22;0.70;;;15.00;88.70;;;;;;4975976;28;20039;-80
2023/10/13 02:43:52;;;;;;;3.42;0.80;;;15.00;88.60;;;;;;4964454;28;20177;-80
2023/10/13 02:46:22;;;;;;;0.90;0.55;;;15.00;88.50;;;;;;4961409;28;20545;-79
2023/10/13 02:49:02;;;;;;;1.77;0.65;;;15.00;88.50;;;;;;4977048;28;20055;-79
2023/10/13 02:51:35;;;;;;;2.38;0.98;;;15.00;88.30;;;;;;4954437;28;20042;-79
2023/10/13 02:56:59;;;;;;;1.00;0.60;;;15.00;88.40;;;;;;4954538;28;20109;-79
2023/10/13 02:59:34;;;;;;;2.90;0.90;;;15.00;88.30;;;;;;4961703;28;20031;-79
2023/10/13 03:02:07;;;;;;;1.42;0.50;;;15.00;88.20;;;;;;4963069;28;20041;-79
2023/10/13 03:04:33;;;;;;;3.60;0.80;;;15.00;88.30;;;;;;4977178;28;20045;-78
2023/10/13 03:06:59;;;;;;;2.97;0.80;;;15.00;88.20;;;;;;4962956;28;20105;-80
2023/10/13 03:09:25;;;;;;;2.45;0.60;;;15.00;88.10;;;;;;4976321;28;20086;-80
2023/10/13 03:11:51;;;;;;;2.78;0.60;;;15.00;88.20;;;;;;4976421;28;20039;-80
2023/10/13 03:14:31;;;;;;;7.32;0.80;;;15.00;88.20;;;;;;4979341;28;20023;-81
2023/10/13 03:17:08;;;;;;;2.47;0.82;;;15.00;88.20;;;;;;4975470;28;20042;-80
2023/10/13 03:19:36;;;;;;;1.95;0.70;;;15.00;88.00;;;;;;4959783;28;20039;-77
2023/10/13 03:22:11;;;;;;;1.75;0.80;;;15.00;88.10;;;;;;4961202;28;20047;-77
2023/10/13 03:24:44;;;;;;;3.50;0.40;;;15.00;88.00;;;;;;4961197;28;20027;-76
2023/10/13 03:27:16;;;;;;;2.00;0.50;;;15.00;88.30;;;;;;4975566;28;20442;-78
2023/10/13 03:29:44;;;;;;;2.00;0.47;;;15.00;88.40;;;;;;4976914;28;20150;-82
2023/10/13 03:32:11;;;;;;;3.83;0.63;;;15.00;88.10;;;;;;4961810;28;20129;-82
2023/10/13 03:34:52;;;;;;;1.98;0.52;;;15.00;88.00;;;;;;4960566;28;20101;-81
2023/10/13 03:37:40;;;;;;;1.00;0.50;;;15.00;87.80;;;;;;4977302;28;20490;-81
2023/10/13 03:40:33;;;;;;;2.30;0.73;;;15.00;87.80;;;;;;4949997;28;20039;-82
2023/10/13 03:45:39;;;;;;;2.28;0.60;;;15.00;87.00;;;;;;4963290;28;20379;-85
2023/10/13 03:48:31;;;;;;;1.02;0.40;;;15.00;87.10;;;;;;4961505;28;20557;-83
2023/10/13 03:51:08;;;;;;;2.50;0.60;;;15.00;87.30;;;;;;4927205;28;20073;-81
2023/10/13 03:53:35;;;;;;;3.03;0.80;;;15.00;87.10;;;;;;4961606;28;20054;-82
2023/10/13 03:56:08;;;;;;;1.70;0.63;;;15.00;87.20;;;;;;4963697;28;20035;-80
2023/10/13 03:58:39;;;;;;;6.15;0.88;;;15.00;87.30;;;;;;4982011;28;20039;-81
2023/10/13 04:01:05;;;;;;;2.80;0.90;;;15.00;87.00;;;;;;4981801;28;20070;-81
2023/10/13 04:03:56;;;;;;;1.58;0.68;;;15.00;87.00;;;;;;4952606;28;20050;-82
2023/10/13 04:17:48;;;;;;;3.53;0.52;;;15.00;87.10;;;;;;4947445;29;20071;-78
2023/10/13 04:20:27;;;;;;;1.77;0.43;;;15.00;87.00;;;;;;4948368;29;20043;-78
2023/10/13 04:25:38;;;;;;;1.95;0.70;;;15.00;86.80;;;;;;4948229;29;20038;-78
2023/10/13 04:41:39;;;;;;;2.08;0.93;;;15.00;86.70;;;;;;4948935;29;20525;-81
2023/10/13 04:46:54;;;;;;;5.22;1.23;;;15.00;87.10;;;;;;4947012;29;20039;-78
2023/10/13 04:49:28;;;;;;;3.67;1.13;;;15.00;87.30;;;;;;4974240;28;20043;-78
2023/10/13 05:01:09;;;;;;;6.43;1.52;;;15.00;88.00;;;;;;4963393;28;20090;-79
2023/10/13 06:29:55;;;;;;;4.35;1.63;;;15.50;75.60;;;;;;4964148;28;20041;-85
2023/10/13 06:32:28;;;;;;;3.25;1.80;;;15.40;76.50;;;;;;4964263;28;20039;-87
2023/10/13 06:34:58;;;;;;;3.40;1.40;;;15.40;75.40;;;;;;4967183;28;20039;-85
2023/10/13 06:37:31;;;;;;;4.65;1.83;;;15.40;75.70;;;;;;4970482;28;20034;-89
2023/10/13 06:40:06;;;;;;;4.82;1.10;;;15.30;76.00;;;;;;4980621;28;20045;-82
2023/10/13 06:42:42;;;;;;;2.53;1.48;;;15.30;75.80;;;;;;4977231;28;20039;-87
2023/10/13 06:45:09;;;;;;;4.65;1.50;;;15.30;76.40;;;;;;4966325;28;20031;-90
2023/10/13 06:47:42;;;;;;;1.92;1.00;;;15.30;75.80;;;;;;4966150;28;20027;-84
2023/10/13 06:50:15;;;;;;;2.83;1.20;;;15.40;75.80;;;;;;4962455;28;20138;-87
2023/10/13 06:52:45;;;;;;;4.97;1.25;;;15.40;75.60;;;;;;4965106;28;20039;-85
2023/10/13 06:55:17;;;;;;;4.75;1.00;;;15.40;75.40;;;;;;4978746;28;20062;-88
2023/10/13 06:57:44;;;;;;;5.53;1.00;;;15.50;74.80;;;;;;4964104;28;20125;-87
2023/10/13 07:00:27;;;;;;;2.45;0.98;;;15.60;74.40;;;;;;4964075;28;20066;-85
2023/10/13 07:02:53;;;;;;;3.10;1.00;;;15.60;73.20;;;;;;4964547;28;20038;-84
2023/10/13 07:05:19;;;;;;;1.92;0.70;;;15.70;73.20;;;;;;4965545;28;20027;-85
2023/10/13 07:07:48;;;;;;;3.03;1.00;;;15.80;73.80;;;;;;4963273;28;20040;-87
2023/10/13 07:10:16;;;;;;;2.08;0.70;;;15.80;71.60;;;;;;4968487;28;20039;-85
2023/10/13 07:12:45;;;;;;;1.92;0.60;;;15.90;71.60;;;;;;4979208;28;20126;-90
2023/10/13 07:15:19;;;;;;;1.63;0.50;;;15.90;71.20;;;;;;4978996;28;20046;-89
2023/10/13 07:17:54;;;;;;;6.25;1.92;;;15.90;70.80;;;;;;4981310;28;20035;-88
2023/10/13 07:20:33;;;;;;;2.13;1.45;;;16.00;70.50;;;;;;4977814;28;20035;-87
2023/10/13 07:23:06;;;;;;;3.53;0.90;;;15.90;69.60;;;;;;4959380;28;20074;-86
2023/10/13 07:25:40;;;;;;;4.13;1.00;;;15.90;69.20;;;;;;4963848;28;20165;-87
2023/10/13 07:28:10;;;;;;;2.90;1.15;;;15.90;68.90;;;;;;4961006;28;20079;-86
2023/10/13 07:30:42;;;;;;;3.40;1.30;;;15.90;67.90;;;;;;4978643;28;20054;-88
2023/10/13 07:33:13;;;;;;;3.38;0.95;;;15.80;67.60;;;;;;4981342;28;20081;-89
2023/10/13 07:35:39;;;;;;;3.20;0.80;;;15.80;67.70;;;;;;4934420;28;20134;-88
2023/10/13 07:38:07;;;;;;;3.00;0.70;;;15.80;67.50;;;;;;4980954;28;20114;-86
2023/10/13 07:43:05;;;;;;;1.52;0.50;;;15.80;67.70;;;;;;4969190;28;20412;-86
2023/10/13 07:45:36;;;;;;;1.60;0.50;;;15.80;67.70;;;;;;4966293;28;20045;-86
2023/10/13 07:48:20;;;;;;;1.20;0.40;;;15.80;67.10;;;;;;4980768;28;20090;-85
2023/10/13 07:51:16;;;;;;;2.00;0.80;;;15.70;66.70;;;;;;4949932;28;20079;-87
2023/10/13 07:53:49;;;;;;;2.60;0.65;;;15.70;66.70;;;;;;4985233;28;20031;-85
2023/10/13 07:56:19;;;;;;;0.82;0.50;;;15.60;67.80;;;;;;4955072;28;20051;-89
2023/10/13 07:59:00;;;;;;;3.15;0.60;;;15.60;67.40;;;;;;4967338;28;20031;-89
2023/10/13 08:01:27;;;;;;;3.15;0.55;;;15.60;66.70;;;;;;4965629;28;20142;-87
2023/10/13 08:04:11;;;;;;;0.85;0.45;;;15.60;66.50;;;;;;4966964;28;20039;-89
2023/10/13 08:06:41;;;;;;;2.22;0.50;;;15.60;66.30;;;;;;4967324;28;20474;-87
2023/10/13 08:11:55;;;;;;;2.45;0.70;;;15.70;65.90;;;;;;4964694;28;20066;-85
2023/10/13 08:14:28;;;;;;;1.73;0.57;;;15.70;65.40;;;;;;4981815;28;20496;-87
2023/10/13 08:16:59;;;;;;;1.33;0.43;;;15.70;65.60;;;;;;4970174;28;20537;-84
2023/10/13 08:19:27;;;;;;;1.38;0.73;;;15.70;65.10;;;;;;4936410;28;20085;-88
2023/10/13 08:21:59;;;;;;;2.05;0.63;;;15.80;65.30;;;;;;4969749;28;20141;-84
2023/10/13 08:32:23;;;;;;;1.15;0.40;;;16.10;73.90;;;;;;4978120;28;20051;-78
2023/10/13 08:48:12;;;;;;;2.80;0.80;;;16.60;74.90;;;;;;4923522;29;21062;-79
2023/10/13 08:53:27;;;;;;;2.05;0.70;;;16.80;73.40;;;;;;4925009;29;20039;-76
2023/10/13 08:56:18;;;;;;;1.50;0.80;;;16.80;72.90;;;;;;4911483;29;20043;-77
2023/10/13 09:07:08;;;;;;;2.20;0.90;;;17.10;75.50;;;;;;4922803;29;20058;-80
2023/10/13 09:12:20;;;;;;;3.20;0.93;;;17.20;74.50;;;;;;4905874;29;20546;-78
2023/10/13 09:15:05;;;;;;;2.88;0.60;;;17.20;76.10;;;;;;4923534;29;20167;-80
2023/10/13 09:17:34;;;;;;;2.65;0.82;;;17.30;76.10;;;;;;4922116;29;20122;-79
2023/10/13 09:20:32;;;;;;;1.42;0.50;;;17.30;74.60;;;;;;4924138;29;20050;-79
2023/10/13 09:25:38;;;;;;;1.38;0.47;;;17.40;73.80;;;;;;4964293;28;20031;-79
2023/10/13 09:28:14;;;;;;;3.63;0.80;;;17.50;73.20;;;;;;4964014;28;20118;-79
2023/10/13 09:30:48;;;;;;;3.50;0.65;;;17.50;72.80;;;;;;4963601;28;20035;-78
2023/10/13 09:34:02;;;;;;;2.00;0.30;;;17.50;72.60;;;;;;4977923;28;20486;-78
2023/10/13 09:36:12;;;;;;;3.55;0.73;;;17.50;72.50;;;;;;4957950;28;20089;-78
2023/10/13 09:38:47;;;;;;;1.65;0.80;;;17.60;71.90;;;;;;4963738;28;20043;-78
2023/10/13 09:41:25;;;;;;;3.15;0.60;;;17.60;72.60;;;;;;4963994;28;20105;-77
2023/10/13 09:43:57;;;;;;;1.77;0.57;;;17.60;71.20;;;;;;4963556;28;20035;-78
2023/10/13 09:46:28;;;;;;;0.95;0.47;;;17.60;70.80;;;;;;4963321;28;20070;-78
2023/10/13 09:49:22;;;;;;;1.35;0.40;;;17.70;71.20;;;;;;4963752;28;20037;-76
2023/10/13 09:51:49;;;;;;;1.15;0.40;;;17.70;70.30;;;;;;4963215;28;20045;-78
2023/10/13 09:54:26;;;;;;;2.38;0.60;;;17.70;69.90;;;;;;4963782;28;20139;-77
2023/10/13 09:57:02;;;;;;;2.90;0.65;;;17.70;70.20;;;;;;4962817;28;20042;-75
2023/10/13 09:59:40;;;;;;;2.47;0.60;;;17.70;70.60;;;;;;4963342;28;20122;-80
2023/10/13 10:02:09;;;;;;;0.68;0.30;;;17.80;71.00;;;;;;4963405;28;20031;-77
2023/10/13 10:04:51;;;;;;;1.15;0.57;;;17.80;70.70;;;;;;4963262;28;20077;-77
2023/10/13 10:07:29;;;;;;;1.65;0.82;;;17.70;69.90;;;;;;4962522;28;20044;-77
2023/10/13 10:09:59;;;;;;;1.50;0.50;;;17.80;69.30;;;;;;4961581;28;20125;-76
2023/10/13 10:12:51;;;;;;;2.85;0.50;;;17.80;68.80;;;;;;4963779;28;20046;-78
2023/10/13 10:15:35;;;;;;;0.98;0.50;;;17.80;68.00;;;;;;4901219;29;20571;-77
2023/10/13 10:18:02;;;;;;;0.88;0.60;;;17.80;69.20;;;;;;4886729;29;20044;-78
2023/10/13 10:20:44;;;;;;;2.00;1.20;;;17.80;68.70;;;;;;4904969;29;20048;-78
2023/10/13 10:23:21;;;;;;;2.45;0.60;;;17.90;68.60;;;;;;4903370;29;20707;-78
2023/10/13 10:25:51;;;;;;;2.45;0.73;;;17.80;67.90;;;;;;4903559;29;20036;-78
2023/10/13 10:28:19;;;;;;;3.03;0.68;;;17.90;67.90;;;;;;4901709;29;20032;-78
2023/10/13 10:30:46;;;;;;;1.17;0.68;;;17.90;67.60;;;;;;4901551;29;20032;-79
2023/10/13 10:33:13;;;;;;;1.13;0.60;;;17.90;67.90;;;;;;4902230;29;20032;-79
2023/10/13 10:35:43;;;;;;;1.80;0.68;;;17.90;67.80;;;;;;4901123;29;20091;-78
2023/10/13 10:41:00;;;;;;;0.60;0.53;;;17.90;68.40;;;;;;4903645;29;20118;-75
2023/10/13 10:43:42;;;;;;;1.55;0.80;;;17.90;67.40;;;;;;4901440;29;20075;-79
2023/10/13 10:46:42;;;;;;;0.50;0.40;;;17.90;67.20;;;;;;4901258;29;20037;-78
2023/10/13 10:49:08;;;;;;;0.90;0.55;;;17.90;66.60;;;;;;4869730;29;20141;-77
2023/10/13 10:51:44;;;;;;;1.55;0.40;;;17.90;66.40;;;;;;4885026;29;20036;-75
2023/10/13 10:54:20;;;;;;;1.90;0.50;;;17.90;66.60;;;;;;4925914;29;20051;-76
2023/10/13 10:56:52;;;;;;;0.70;0.50;;;18.00;66.40;;;;;;4926204;29;20134;-77
2023/10/13 10:59:19;;;;;;;1.55;0.35;;;18.00;67.60;;;;;;4926128;29;21110;-77
2023/10/13 11:01:46;;;;;;;3.60;0.90;;;17.90;68.90;;;;;;4925818;29;20447;-77
2023/10/13 11:04:14;;;;;;;1.65;0.50;;;17.90;69.60;;;;;;4925571;29;20040;-77
2023/10/13 11:07:00;;;;;;;4.30;0.55;;;17.90;67.80;;;;;;4925226;29;20042;-77
2023/10/13 11:09:31;;;;;;;1.35;0.70;;;17.90;68.20;;;;;;4910420;29;20091;-77
2023/10/13 11:12:16;;;;;;;2.47;0.60;;;17.90;68.20;;;;;;4910278;29;20094;-77
2023/10/13 11:14:54;;;;;;;4.20;0.75;;;17.90;69.50;;;;;;4907551;29;20036;-77
2023/10/13 11:17:26;;;;;;;3.70;0.60;;;17.90;67.90;;;;;;4926148;29;20040;-77
2023/10/13 11:19:52;;;;;;;2.00;0.50;;;17.90;67.40;;;;;;4925677;29;20086;-76
2023/10/13 11:22:33;;;;;;;2.58;0.60;;;17.90;69.50;;;;;;4924565;29;20247;-78
2023/10/13 11:25:00;;;;;;;2.03;0.50;;;17.90;67.00;;;;;;4947273;28;20038;-75
2023/10/13 11:30:24;;;;;;;2.85;0.50;;;17.90;68.10;;;;;;4962818;28;20041;-77
2023/10/13 11:33:05;;;;;;;1.15;0.55;;;17.90;66.80;;;;;;4975826;28;20066;-77
2023/10/13 11:35:55;;;;;;;1.65;0.63;;;17.90;66.20;;;;;;4961182;28;20034;-76
2023/10/13 11:38:45;;;;;;;1.75;0.80;;;17.90;66.40;;;;;;4962485;28;20464;-77
2023/10/13 11:41:21;;;;;;;1.38;0.50;;;18.00;66.20;;;;;;4960868;28;20049;-76
2023/10/13 11:51:46;;;;;;;1.45;0.60;;;18.00;66.50;;;;;;4959879;28;20110;-76
2023/10/13 11:54:17;;;;;;;0.85;0.75;;;17.90;66.30;;;;;;4961912;28;20713;-77
2023/10/13 11:56:44;;;;;;;2.75;0.32;;;18.00;65.80;;;;;;4959391;28;20031;-77
2023/10/13 11:59:17;;;;;;;1.90;0.50;;;18.00;66.40;;;;;;4974734;28;20035;-77
2023/10/13 12:07:23;;;;;;;2.50;0.68;;;18.00;65.80;;;;;;4960989;28;20106;-76
2023/10/13 12:12:27;;;;;;;1.20;0.60;;;18.00;65.90;;;;;;4961095;28;20035;-76
2023/10/13 12:14:55;;;;;;;1.63;0.50;;;18.00;65.10;;;;;;4960686;28;20407;-76
2023/10/13 12:17:31;;;;;;;1.88;0.50;;;18.00;66.30;;;;;;4963473;28;20038;-76
2023/10/13 12:19:58;;;;;;;1.10;0.40;;;18.10;65.60;;;;;;4964969;28;20035;-77
2023/10/13 12:22:28;;;;;;;1.63;0.43;;;18.10;64.60;;;;;;4962865;28;20097;-77
2023/10/13 12:24:57;;;;;;;1.88;0.50;;;18.00;64.40;;;;;;4952005;28;20406;-76
2023/10/13 12:27:26;;;;;;;1.42;0.32;;;18.10;65.00;;;;;;4964429;28;20085;-75
2023/10/13 12:29:53;;;;;;;1.27;0.47;;;18.00;65.40;;;;;;4965931;28;20022;-77
2023/10/13 12:32:25;;;;;;;0.95;0.50;;;18.10;65.10;;;;;;4964256;28;20225;-77
2023/10/13 12:54:04;;;;;;;1.08;0.40;;;18.10;63.60;;;;;;4964432;28;20815;-76
2023/10/13 12:56:30;;;;;;;1.10;0.38;;;18.10;63.50;;;;;;4979530;28;20097;-77
2023/10/13 12:58:56;;;;;;;3.25;0.45;;;18.10;63.20;;;;;;4962837;28;20379;-76
2023/10/13 13:01:25;;;;;;;4.30;0.70;;;18.10;63.20;;;;;;4963093;28;20031;-77
2023/10/13 13:03:55;;;;;;;2.70;0.50;;;18.10;63.80;;;;;;4964338;28;20038;-77
2023/10/13 13:06:26;;;;;;;0.40;0.30;;;18.00;63.40;;;;;;4964600;28;20043;-77
2023/10/13 13:08:53;;;;;;;0.50;0.20;;;18.10;63.40;;;;;;4963436;28;20118;-77
2023/10/13 13:11:19;;;;;;;0.75;0.43;;;18.00;63.50;;;;;;4963387;28;20394;-76
2023/10/13 13:13:48;;;;;;;1.00;0.50;;;18.00;63.70;;;;;;4964157;28;20529;-77
2023/10/13 13:16:18;;;;;;;0.60;0.50;;;18.00;63.60;;;;;;4962948;28;20031;-77
2023/10/13 13:18:44;;;;;;;2.25;0.47;;;18.00;63.00;;;;;;4978019;28;20536;-77
2023/10/13 13:21:19;;;;;;;1.08;0.50;;;18.00;64.20;;;;;;4977175;28;20035;-76
2023/10/13 13:23:46;;;;;;;;;;;18.00;64.00;;;;;;4965667;28;20047;-87
2023/10/13 13:26:15;;;;;;;2.10;0.50;;;18.00;63.10;;;;;;4946950;28;19918;-84
2023/10/13 13:28:45;;;;;;;2.97;0.70;;;17.90;60.70;;;;;;4946032;28;20046;-84
2023/10/13 13:31:15;;;;;;;1.15;0.50;;;17.80;59.20;;;;;;4945672;28;20031;-82
2023/10/13 13:33:43;;;;;;;1.00;0.50;;;17.80;59.20;;;;;;4945931;28;20147;-81
2023/10/13 13:36:16;;;;;;;4.00;0.65;;;17.70;58.10;;;;;;4977297;28;20039;-82
2023/10/13 13:38:45;;;;;;;1.80;0.60;;;17.70;57.60;;;;;;4946103;28;20549;-81
2023/10/13 13:41:16;;;;;;;0.82;0.52;;;17.50;58.10;;;;;;4983483;28;20038;-85
2023/10/13 13:46:17;;;;;;;3.30;0.82;;;17.40;57.90;;;;;;4962621;28;20046;-84
2023/10/13 13:48:47;;;;;;;1.40;0.60;;;17.40;58.30;;;;;;4966247;28;20067;-84
2023/10/13 13:51:19;;;;;;;1.92;0.85;;;17.30;57.60;;;;;;4977574;28;20596;-83
2023/10/13 13:53:47;;;;;;;2.78;0.90;;;17.20;57.90;;;;;;4962264;28;20066;-83
2023/10/13 13:56:18;;;;;;;1.25;0.80;;;17.20;58.80;;;;;;4962380;28;20105;-82
2023/10/13 13:58:51;;;;;;;4.53;1.00;;;17.20;58.90;;;;;;4961266;28;20036;-84
2023/10/13 14:01:19;;;;;;;3.80;1.00;;;17.10;59.80;;;;;;4962299;28;20035;-83
2023/10/13 14:03:47;;;;;;;3.08;0.93;;;17.00;60.00;;;;;;4978482;28;20713;-83
2023/10/13 14:06:23;;;;;;;3.35;1.33;;;17.00;60.20;;;;;;4975494;28;20047;-83
2023/10/13 14:09:00;;;;;;;2.38;0.95;;;16.90;59.40;;;;;;4962085;28;20045;-84
2023/10/13 14:14:13;;;;;;;4.97;1.02;;;16.90;59.60;;;;;;4961654;28;20042;-85
2023/10/13 14:16:49;;;;;;;1.92;0.80;;;16.80;60.00;;;;;;4959758;28;20121;-89
2023/10/13 14:19:26;;;;;;;1.48;0.73;;;16.80;61.10;;;;;;4932998;28;20046;-86
2023/10/13 14:21:53;;;;;;;2.22;0.82;;;16.70;60.10;;;;;;4960956;28;20119;-87
2023/10/13 14:24:27;;;;;;;3.20;0.98;;;16.70;59.70;;;;;;4962263;28;20731;-88
2023/10/13 14:27:08;;;;;;;2.08;0.98;;;16.60;62.40;;;;;;4976998;28;20077;-87
2023/10/13 14:29:40;;;;;;;2.72;0.90;;;16.60;60.30;;;;;;4965181;28;20033;-91
2023/10/13 14:32:13;;;;;;;2.47;1.20;;;16.50;60.20;;;;;;4970408;28;20239;-90
2023/10/13 14:34:44;;;;;;;3.53;0.60;;;16.50;61.10;;;;;;4983674;28;20094;-80
2023/10/13 14:37:13;;;;;;;1.92;0.73;;;16.40;61.70;;;;;;4992734;28;20050;-86
2023/10/13 14:39:40;;;;;;;4.40;1.13;;;16.40;61.30;;;;;;4971480;28;20043;-83
2023/10/13 14:42:06;;;;;;;5.07;0.90;;;16.40;62.60;;;;;;4989297;28;20089;-82
2023/10/13 14:44:33;;;;;;;3.85;1.00;;;16.30;60.40;;;;;;4971784;28;20039;-83
2023/10/13 14:47:01;;;;;;;2.22;0.80;;;16.30;60.80;;;;;;4971573;28;20039;-87
2023/10/13 14:49:27;;;;;;;3.25;1.10;;;16.30;62.70;;;;;;4943963;28;20059;-82
2023/10/13 14:51:55;;;;;;;2.50;1.10;;;16.20;60.70;;;;;;4965390;28;20202;-87
2023/10/13 14:54:34;;;;;;;5.05;1.15;;;16.20;62.10;;;;;;4971629;28;20158;-84
2023/10/13 14:57:03;;;;;;;4.28;0.88;;;16.10;62.80;;;;;;4970183;28;20033;-84
2023/10/13 14:59:33;;;;;;;3.28;1.08;;;16.20;62.10;;;;;;4984513;28;20045;-82
2023/10/13 15:02:01;;;;;;;3.17;0.98;;;16.20;64.20;;;;;;4967133;28;20046;-84
2023/10/13 15:04:28;;;;;;;3.30;1.20;;;16.20;63.80;;;;;;4985008;28;20042;-83
2023/10/13 15:06:55;;;;;;;5.15;1.08;;;16.20;62.90;;;;;;4980592;28;20464;-81
2023/10/13 15:09:23;;;;;;;3.30;1.05;;;16.20;63.10;;;;;;4971800;28;20066;-83
2023/10/13 15:11:53;;;;;;;1.83;0.80;;;16.20;62.40;;;;;;4965240;28;20070;-84
2023/10/13 15:14:20;;;;;;;4.65;1.10;;;16.20;62.20;;;;;;4980921;28;20031;-84
2023/10/13 15:16:48;;;;;;;1.83;0.80;;;16.20;62.30;;;;;;4972037;28;20053;-85
2023/10/13 15:19:16;;;;;;;2.50;1.20;;;16.20;62.20;;;;;;4969059;28;20063;-83
2023/10/13 15:21:43;;;;;;;3.30;1.00;;;16.10;62.00;;;;;;4976704;28;20053;-83
2023/10/13 15:24:20;;;;;;;1.48;0.60;;;16.10;62.10;;;;;;4964463;28;20589;-83
2023/10/13 15:26:52;;;;;;;2.90;0.93;;;16.10;62.20;;;;;;4962721;28;20177;-82
2023/10/13 15:29:25;;;;;;;2.42;1.23;;;16.10;62.00;;;;;;4965171;28;20470;-82
2023/10/13 15:34:28;;;;;;;2.58;1.23;;;16.00;62.40;;;;;;4964799;28;20057;-86
2023/10/13 15:36:56;;;;;;;3.75;1.17;;;16.00;61.90;;;;;;4964079;28;20487;-80
2023/10/13 15:39:31;;;;;;;4.22;1.30;;;16.00;64.10;;;;;;4975526;28;20379;-83
2023/10/13 15:41:58;;;;;;;2.55;1.00;;;16.10;72.60;;;;;;4962062;28;20037;-81
2023/10/13 15:44:30;;;;;;;3.03;1.25;;;16.30;75.00;;;;;;4962119;28;20648;-82
2023/10/13 15:46:59;;;;;;;4.60;1.00;;;16.40;76.70;;;;;;4958804;28;20035;-76
2023/10/13 15:49:27;;;;;;;4.40;1.20;;;16.50;77.50;;;;;;4964570;28;20035;-83
2023/10/13 15:51:56;;;;;;;3.45;1.13;;;16.60;77.00;;;;;;4962090;28;20563;-75
2023/10/13 15:54:23;;;;;;;1.60;0.90;;;16.60;76.30;;;;;;4964775;28;20036;-78
2023/10/13 15:56:54;;;;;;;8.13;1.73;;;16.70;78.00;;;;;;4978506;28;20038;-78
2023/10/13 15:59:22;;;;;;;4.45;2.05;;;16.80;78.40;;;;;;4966947;28;20031;-80
2023/10/13 16:01:54;;;;;;;5.93;1.95;;;16.90;78.30;;;;;;4966116;28;20035;-77
2023/10/13 16:04:20;;;;;;;6.60;1.85;;;17.00;78.60;;;;;;4964902;28;20043;-76
2023/10/13 16:06:50;;;;;;;6.55;1.80;;;17.10;78.70;;;;;;4961989;28;20039;-79
2023/10/13 16:09:23;;;;;;;5.88;2.00;;;17.10;78.40;;;;;;4964436;28;20046;-82
2023/10/13 16:11:50;;;;;;;6.65;2.20;;;17.20;78.60;;;;;;4963761;28;20046;-82
2023/10/13 16:14:17;;;;;;;4.45;1.60;;;17.20;76.90;;;;;;4979443;28;20129;-84
2023/10/13 16:16:44;;;;;;;5.30;1.83;;;17.20;73.60;;;;;;4951924;28;20034;-84
2023/10/13 16:19:10;;;;;;;3.38;1.55;;;17.10;71.20;;;;;;4986649;28;20042;-82
2023/10/13 16:21:39;;;;;;;5.20;1.50;;;17.10;69.60;;;;;;4990347;28;20038;-82
2023/10/13 16:24:10;;;;;;;2.45;1.40;;;17.00;68.80;;;;;;4975509;28;20567;-83
2023/10/13 16:26:37;;;;;;;5.45;1.83;;;17.00;68.90;;;;;;4972047;28;20035;-83
2023/10/13 16:29:03;;;;;;;4.25;1.50;;;16.90;69.90;;;;;;4988039;28;20035;-83
2023/10/13 16:31:29;;;;;;;4.28;1.98;;;16.90;68.60;;;;;;4988472;28;20031;-88
2023/10/13 16:33:58;;;;;;;4.72;1.40;;;16.80;67.70;;;;;;4972231;28;20035;-87
2023/10/13 16:36:25;;;;;;;4.18;1.50;;;16.70;67.60;;;;;;4988585;28;20043;-80
2023/10/13 16:38:51;;;;;;;2.47;1.50;;;16.60;67.60;;;;;;4974411;28;20042;-88
2023/10/13 16:41:18;;;;;;;3.70;1.42;;;16.60;66.70;;;;;;4992341;28;20034;-89
2023/10/13 16:43:45;;;;;;;2.28;1.13;;;16.50;67.40;;;;;;4975110;28;20035;-87
2023/10/13 16:46:17;;;;;;;4.25;1.92;;;16.50;66.90;;;;;;4989690;28;20106;-87
2023/10/13 16:48:48;;;;;;;2.03;1.50;;;16.40;66.90;;;;;;4972205;28;20035;-84
2023/10/13 16:51:15;;;;;;;3.75;1.40;;;16.30;66.60;;;;;;4990305;28;20126;-87
2023/10/13 16:53:51;;;;;;;4.63;1.63;;;16.30;66.70;;;;;;4989302;28;20039;-84
2023/10/13 16:56:17;;;;;;;2.88;1.40;;;16.30;66.60;;;;;;4957311;28;20062;-84
2023/10/13 16:58:44;;;;;;;2.25;1.30;;;16.20;65.90;;;;;;4970791;28;20100;-80
2023/10/13 17:01:11;;;;;;;3.25;1.80;;;16.20;66.00;;;;;;4974693;28;20042;-82
2023/10/13 17:03:44;;;;;;;4.50;1.50;;;16.20;65.80;;;;;;4974243;28;20454;-83
2023/10/13 17:06:12;;;;;;;3.05;1.70;;;16.10;65.20;;;;;;4972734;28;20043;-83